createdAt,value
2022-11-06T00:00:07.520Z,5.20
2022-11-06T00:02:35.853Z,6.60
2022-11-06T00:05:18.310Z,6.20
2022-11-06T00:07:47.561Z,7.40
2022-11-06T00:10:18.913Z,6.00
2022-11-06T00:12:47.180Z,7.80
2022-11-06T00:15:15.432Z,7.00
2022-11-06T00:17:43.919Z,4.40
2022-11-06T00:20:12.427Z,7.20
2022-11-06T00:22:40.636Z,4.00
2022-11-06T00:25:09.365Z,4.00
2022-11-06T00:27:39.043Z,6.60
2022-11-06T00:30:08.762Z,4.00
2022-11-06T00:32:36.973Z,5.60
2022-11-06T00:35:05.549Z,6.40
2022-11-06T00:37:33.789Z,4.40
2022-11-06T00:40:02.091Z,4.40
2022-11-06T00:42:30.294Z,7.00
2022-11-06T00:45:00.217Z,6.00
2022-11-06T00:47:28.469Z,6.00
2022-11-06T00:49:56.700Z,6.00
2022-11-06T00:52:25.222Z,7.40
2022-11-06T00:54:53.430Z,6.20
2022-11-06T00:57:21.659Z,4.40
2022-11-06T00:59:49.919Z,7.00
2022-11-06T01:02:21.312Z,4.00
2022-11-06T01:04:49.577Z,6.00
2022-11-06T01:07:17.820Z,6.40
2022-11-06T01:09:46.101Z,6.60
2022-11-06T01:12:14.872Z,4.00
2022-11-06T01:14:43.374Z,5.60
2022-11-06T01:17:11.666Z,6.00
2022-11-06T01:19:41.505Z,3.20
2022-11-06T01:22:09.751Z,6.00
2022-11-06T01:24:38.224Z,5.60
2022-11-06T01:29:54.935Z,3.20
2022-11-06T01:32:23.171Z,6.00
2022-11-06T01:34:53.102Z,5.20
2022-11-06T01:37:21.332Z,6.00
2022-11-06T01:39:50.795Z,3.40
2022-11-06T01:42:20.859Z,6.00
2022-11-06T01:45:16.093Z,3.00
2022-11-06T01:47:44.357Z,4.00
2022-11-06T01:50:14.133Z,4.00
2022-11-06T01:52:42.704Z,5.60
2022-11-06T01:55:13.314Z,5.20
2022-11-06T01:57:41.540Z,3.80
2022-11-06T02:00:10.804Z,4.00
2022-11-06T02:02:39.151Z,4.00
2022-11-06T02:05:07.810Z,6.00
2022-11-06T02:07:37.391Z,3.80
2022-11-06T02:10:06.550Z,3.00
2022-11-06T02:12:41.575Z,3.80
2022-11-06T02:15:13.305Z,6.00
2022-11-06T02:17:49.106Z,3.20
2022-11-06T02:20:21.702Z,4.00
2022-11-06T02:23:10.613Z,4.00
2022-11-06T02:25:46.419Z,3.00
2022-11-06T02:28:20.155Z,0.00
2022-11-06T02:30:48.497Z,5.20
2022-11-06T02:33:18.069Z,4.00
2022-11-06T02:35:48.497Z,4.40
2022-11-06T02:38:18.525Z,2.80
2022-11-06T02:40:48.717Z,4.00
2022-11-06T02:43:18.309Z,4.80
2022-11-06T02:45:48.901Z,4.00
2022-11-06T02:48:18.194Z,4.00
2022-11-06T02:50:47.292Z,3.20
2022-11-06T02:53:15.871Z,3.00
2022-11-06T02:55:46.910Z,4.00
2022-11-06T02:58:18.079Z,4.00
2022-11-06T03:00:48.240Z,3.80
2022-11-06T03:03:18.390Z,2.20
2022-11-06T03:05:49.124Z,4.00
2022-11-06T03:08:19.265Z,5.20
2022-11-06T03:10:50.002Z,3.20
2022-11-06T03:13:20.465Z,4.00
2022-11-06T03:15:51.977Z,1.00
2022-11-06T03:18:24.213Z,3.40
2022-11-06T03:20:57.154Z,3.20
2022-11-06T03:23:28.508Z,3.00
2022-11-06T03:25:58.922Z,4.00
2022-11-06T03:28:31.317Z,0.00
2022-11-06T03:31:00.760Z,3.40
2022-11-06T03:33:32.902Z,3.80
2022-11-06T03:36:03.389Z,2.20
2022-11-06T03:38:32.976Z,3.00
2022-11-06T03:41:03.316Z,4.40
2022-11-06T03:43:35.889Z,3.20
2022-11-06T03:46:05.988Z,4.00
2022-11-06T03:48:35.972Z,4.00
2022-11-06T03:51:05.817Z,4.00
2022-11-06T03:53:37.611Z,4.40
2022-11-06T03:56:07.871Z,4.00
2022-11-06T03:58:39.428Z,4.00
2022-11-06T04:01:09.033Z,3.40
2022-11-06T04:03:39.077Z,3.80
2022-11-06T04:06:09.569Z,4.00
2022-11-06T04:08:51.560Z,0.00
2022-11-06T04:11:35.044Z,3.60
2022-11-06T04:14:05.664Z,3.80
2022-11-06T04:16:35.628Z,3.00
2022-11-06T04:19:03.943Z,3.00
2022-11-06T04:21:40.756Z,3.20
2022-11-06T04:24:26.707Z,3.00
2022-11-06T04:27:04.260Z,4.00
2022-11-06T04:29:41.505Z,1.40
2022-11-06T04:32:11.901Z,3.00
2022-11-06T04:34:44.525Z,3.20
2022-11-06T04:37:15.487Z,1.00
2022-11-06T04:39:46.831Z,3.00
2022-11-06T04:42:19.051Z,1.00
2022-11-06T04:44:50.010Z,3.00
2022-11-06T04:47:19.646Z,4.00
2022-11-06T04:49:47.913Z,3.20
2022-11-06T04:52:18.104Z,4.00
2022-11-06T04:54:47.177Z,3.80
2022-11-06T04:57:15.422Z,3.00
2022-11-06T04:59:43.680Z,2.20
2022-11-06T05:02:13.728Z,3.00
2022-11-06T05:04:42.362Z,0.60
2022-11-06T05:07:10.723Z,3.40
2022-11-06T05:09:38.935Z,1.40
2022-11-06T05:12:07.817Z,0.00
2022-11-06T05:14:36.105Z,1.00
2022-11-06T05:17:04.338Z,1.00
2022-11-06T05:19:33.954Z,2.60
2022-11-06T05:22:16.228Z,1.00
2022-11-06T05:24:44.577Z,0.80
2022-11-06T05:27:12.839Z,3.00
2022-11-06T05:29:41.095Z,1.00
2022-11-06T05:32:09.714Z,3.00
2022-11-06T05:34:39.317Z,3.80
2022-11-06T05:37:07.518Z,3.20
2022-11-06T05:39:41.378Z,0.00
2022-11-06T05:42:10.422Z,1.00
2022-11-06T05:44:39.048Z,3.40
2022-11-06T05:47:07.584Z,1.00
2022-11-06T05:49:35.853Z,3.00
2022-11-06T05:52:05.609Z,1.00
2022-11-06T05:54:33.855Z,1.00
2022-11-06T05:57:02.879Z,3.00
2022-11-06T05:59:31.195Z,0.40
2022-11-06T06:02:00.292Z,1.00
2022-11-06T06:04:28.656Z,1.00
2022-11-06T06:06:56.950Z,0.40
2022-11-06T06:09:26.563Z,3.00
2022-11-06T06:11:54.962Z,1.00
2022-11-06T06:14:23.218Z,1.40
2022-11-06T06:16:51.448Z,1.00
2022-11-06T06:19:20.463Z,1.00
2022-11-06T06:21:48.669Z,1.00
2022-11-06T06:24:17.052Z,1.80
2022-11-06T06:26:46.859Z,0.40
2022-11-06T06:29:15.158Z,1.80
2022-11-06T06:31:43.390Z,1.00
2022-11-06T06:34:11.614Z,1.40
2022-11-06T06:36:40.102Z,1.00
2022-11-06T06:39:08.365Z,1.00
2022-11-06T06:41:36.591Z,1.80
2022-11-06T06:44:06.637Z,1.00
2022-11-06T06:46:34.882Z,0.00
2022-11-06T06:49:03.124Z,1.40
2022-11-06T06:51:31.344Z,1.00
2022-11-06T06:54:00.048Z,1.00
2022-11-06T06:56:28.306Z,3.00
2022-11-06T06:58:56.547Z,2.60
2022-11-06T07:01:26.205Z,3.60
2022-11-06T07:03:57.533Z,1.00
2022-11-06T07:06:28.153Z,2.60
2022-11-06T07:08:56.715Z,3.00
2022-11-06T07:11:24.914Z,1.00
2022-11-06T07:13:53.143Z,2.60
2022-11-06T07:16:22.059Z,0.60
2022-11-06T07:18:51.672Z,4.00
2022-11-06T07:21:19.939Z,1.80
2022-11-06T07:23:48.429Z,4.00
2022-11-06T07:26:17.614Z,3.00
2022-11-06T07:28:45.991Z,13.40
2022-11-06T07:31:14.226Z,3.00
2022-11-06T07:33:42.472Z,1.40
2022-11-06T07:36:12.831Z,1.80
2022-11-06T07:38:41.982Z,2.20
2022-11-06T07:41:11.054Z,3.00
2022-11-06T07:43:39.252Z,1.00
2022-11-06T07:46:09.129Z,1.00
2022-11-06T07:48:37.367Z,3.00
2022-11-06T07:51:06.176Z,3.00
2022-11-06T07:53:35.803Z,2.20
2022-11-06T07:56:04.382Z,1.00
2022-11-06T07:58:32.594Z,3.00
2022-11-06T08:01:00.875Z,3.00
2022-11-06T08:03:30.553Z,0.00
2022-11-06T08:05:59.354Z,1.00
2022-11-06T08:08:28.724Z,1.40
2022-11-06T08:11:02.427Z,3.00
2022-11-06T08:13:30.634Z,1.00
2022-11-06T08:15:58.861Z,3.00
2022-11-06T08:18:27.098Z,1.40
2022-11-06T08:20:55.449Z,1.40
2022-11-06T08:23:23.689Z,3.00
2022-11-06T08:25:54.464Z,1.80
2022-11-06T08:28:24.097Z,3.00
2022-11-06T08:30:52.304Z,3.00
2022-11-06T08:33:20.703Z,0.00
2022-11-06T08:35:49.765Z,1.00
2022-11-06T08:38:17.979Z,3.00
2022-11-06T08:40:50.731Z,1.00
2022-11-06T08:43:23.638Z,3.00
2022-11-06T08:45:53.575Z,1.00
2022-11-06T08:48:21.810Z,1.00
2022-11-06T08:50:51.730Z,3.00
2022-11-06T08:53:20.056Z,1.00
2022-11-06T08:55:48.381Z,0.00
2022-11-06T08:58:16.670Z,1.40
2022-11-06T09:00:45.180Z,2.20
2022-11-06T09:03:16.754Z,2.20
2022-11-06T09:05:45.501Z,1.00
2022-11-06T09:08:13.734Z,1.00
2022-11-06T09:10:42.589Z,1.00
2022-11-06T09:13:11.223Z,3.80
2022-11-06T09:15:39.791Z,1.00
2022-11-06T09:18:08.022Z,1.00
2022-11-06T09:20:38.795Z,3.80
2022-11-06T09:23:08.281Z,1.00
2022-11-06T09:25:36.895Z,3.00
2022-11-06T09:28:06.724Z,9.60
2022-11-06T09:30:35.597Z,4.00
2022-11-06T09:33:04.739Z,1.80
2022-11-06T09:35:37.245Z,3.80
2022-11-06T09:38:05.870Z,8.40
2022-11-06T09:40:35.802Z,14.40
2022-11-06T09:43:13.482Z,10.40
2022-11-06T09:45:42.429Z,7.00
2022-11-06T09:48:17.031Z,3.80
2022-11-06T09:50:56.923Z,7.40
2022-11-06T09:53:31.985Z,8.40
2022-11-06T09:56:06.929Z,6.20
2022-11-06T09:58:43.828Z,6.00
2022-11-06T10:01:22.000Z,6.60
2022-11-06T10:03:55.699Z,7.60
2022-11-06T10:06:26.606Z,0.40
2022-11-06T10:08:55.979Z,1.00
2022-11-06T10:11:32.023Z,1.00
2022-11-06T10:14:03.344Z,3.00
2022-11-06T10:16:35.238Z,1.00
2022-11-06T10:19:09.314Z,0.00
2022-11-06T10:21:45.037Z,1.40
2022-11-06T10:24:16.789Z,3.00
2022-11-06T10:26:47.362Z,3.00
2022-11-06T10:29:22.586Z,3.00
2022-11-06T10:31:56.290Z,1.00
2022-11-06T10:34:27.379Z,0.20
2022-11-06T10:36:58.555Z,1.00
2022-11-06T10:39:30.297Z,3.00
2022-11-06T10:42:01.686Z,1.40
2022-11-06T10:44:30.625Z,0.20
2022-11-06T10:47:02.159Z,1.00
2022-11-06T10:49:36.767Z,3.00
2022-11-06T10:52:15.799Z,2.20
2022-11-06T10:54:51.394Z,2.20
2022-11-06T10:57:25.220Z,3.00
2022-11-06T10:59:53.483Z,1.00
2022-11-06T11:02:27.853Z,1.00
2022-11-06T11:04:58.201Z,0.00
2022-11-06T11:07:31.346Z,2.20
2022-11-06T11:09:59.631Z,3.20
2022-11-06T11:12:28.754Z,1.00
2022-11-06T11:15:07.130Z,3.60
2022-11-06T11:17:35.337Z,3.00
2022-11-06T11:20:22.083Z,1.00
2022-11-06T11:23:06.023Z,0.40
2022-11-06T11:25:34.399Z,1.00
2022-11-06T11:28:05.047Z,3.00
2022-11-06T11:30:50.755Z,3.00
2022-11-06T11:33:20.487Z,0.00
2022-11-06T11:35:49.583Z,1.00
2022-11-06T11:38:19.256Z,3.20
2022-11-06T11:40:47.476Z,1.80
2022-11-06T11:43:21.338Z,3.00
2022-11-06T11:46:06.130Z,1.40
2022-11-06T11:48:45.842Z,1.00
2022-11-06T11:51:33.906Z,0.00
2022-11-06T11:54:06.435Z,1.00
2022-11-06T11:57:04.184Z,2.60
2022-11-06T11:59:24.733Z,3.00
2022-11-06T12:01:53.070Z,2.60
2022-11-06T12:04:25.087Z,0.80
2022-11-06T12:06:55.785Z,1.40
2022-11-06T12:09:25.453Z,0.00
2022-11-06T12:11:54.579Z,1.80
2022-11-06T12:14:28.361Z,1.00
2022-11-06T12:16:57.870Z,1.80
2022-11-06T12:19:27.304Z,1.00
2022-11-06T12:21:56.439Z,0.60
2022-11-06T12:24:27.025Z,1.00
2022-11-06T12:26:56.664Z,3.00
2022-11-06T12:29:26.168Z,0.80
2022-11-06T12:31:56.682Z,0.80
2022-11-06T12:34:29.898Z,1.00
2022-11-06T12:37:05.958Z,1.00
2022-11-06T12:39:35.810Z,1.00
2022-11-06T12:42:04.143Z,1.00
2022-11-06T12:44:32.373Z,0.80
2022-11-06T12:47:02.135Z,1.00
2022-11-06T12:49:41.907Z,1.00
2022-11-06T12:52:18.103Z,0.00
2022-11-06T12:54:54.806Z,0.20
2022-11-06T12:57:28.197Z,1.00
2022-11-06T13:00:05.571Z,1.00
2022-11-06T13:02:41.819Z,1.00
2022-11-06T13:05:12.938Z,1.00
2022-11-06T13:07:52.490Z,0.00
2022-11-06T13:10:26.845Z,1.00
2022-11-06T13:13:14.891Z,0.60
2022-11-06T13:15:48.911Z,0.00
2022-11-06T13:18:20.005Z,0.00
2022-11-06T13:20:50.942Z,0.00
2022-11-06T13:23:20.903Z,0.00
2022-11-06T13:25:54.677Z,1.00
2022-11-06T13:28:27.691Z,0.40
2022-11-06T13:30:55.905Z,1.00
2022-11-06T13:33:25.994Z,0.00
2022-11-06T13:35:54.272Z,0.20
2022-11-06T13:38:24.684Z,1.00
2022-11-06T13:41:00.655Z,1.00
2022-11-06T13:43:34.573Z,1.00
2022-11-06T13:46:07.078Z,1.00
2022-11-06T13:48:41.351Z,1.00
2022-11-06T13:51:13.807Z,1.00
2022-11-06T13:53:44.828Z,0.20
2022-11-06T13:56:29.239Z,0.80
2022-11-06T13:59:06.425Z,1.00
2022-11-06T14:01:44.948Z,1.00
2022-11-06T14:04:27.282Z,1.00
2022-11-06T14:06:55.624Z,0.00
2022-11-06T14:09:24.628Z,0.00
2022-11-06T14:11:55.979Z,1.00
2022-11-06T14:14:26.778Z,1.00
2022-11-06T14:17:11.622Z,0.40
2022-11-06T14:19:40.028Z,0.20
2022-11-06T14:22:19.135Z,1.00
2022-11-06T14:24:47.369Z,1.00
2022-11-06T14:27:51.670Z,1.00
2022-11-06T14:33:59.648Z,1.80
2022-11-06T14:36:30.817Z,0.20
2022-11-06T14:38:59.096Z,0.00
2022-11-06T14:41:56.822Z,1.00
2022-11-06T14:44:29.670Z,0.80
2022-11-06T14:46:59.433Z,0.80
2022-11-06T14:49:33.694Z,0.00
2022-11-06T14:52:03.316Z,0.00
2022-11-06T14:54:31.676Z,1.00
2022-11-06T14:56:59.910Z,1.80
2022-11-06T14:59:34.392Z,1.00
2022-11-06T15:02:05.961Z,3.00
2022-11-06T15:04:34.853Z,1.00
2022-11-06T15:07:08.811Z,0.00
2022-11-06T15:09:46.293Z,0.60
2022-11-06T15:12:14.551Z,0.00
2022-11-06T15:17:36.173Z,4.00
2022-11-06T15:20:24.977Z,2.20
2022-11-06T15:26:05.639Z,1.00
2022-11-06T15:28:39.755Z,1.00
2022-11-06T15:31:09.280Z,0.00
2022-11-06T15:33:43.579Z,1.00
2022-11-06T15:36:13.741Z,0.00
2022-11-06T15:38:52.663Z,3.00
2022-11-06T15:41:22.660Z,3.00
2022-11-06T15:43:51.672Z,2.60
2022-11-06T15:46:23.586Z,3.00
2022-11-06T15:51:51.685Z,2.00
2022-11-06T15:54:40.254Z,1.00
2022-11-06T15:57:15.017Z,1.00
2022-11-06T15:59:46.431Z,1.00
2022-11-06T16:02:20.709Z,1.80
2022-11-06T16:04:49.409Z,0.60
2022-11-06T16:07:19.613Z,0.40
2022-11-06T16:09:51.773Z,0.00
2022-11-06T16:12:23.586Z,1.00
2022-11-06T16:14:55.727Z,0.80
2022-11-06T16:17:25.285Z,0.20
2022-11-06T16:19:53.963Z,1.00
2022-11-06T16:22:28.870Z,1.00
2022-11-06T16:24:58.153Z,1.40
2022-11-06T16:27:26.372Z,1.80
2022-11-06T16:29:56.172Z,3.40
2022-11-06T16:32:30.513Z,2.20
2022-11-06T16:35:00.347Z,2.20
2022-11-06T16:37:38.875Z,3.80
2022-11-06T16:40:27.561Z,3.00
2022-11-06T16:43:02.163Z,1.00
2022-11-06T16:45:31.453Z,2.20
2022-11-06T16:48:25.072Z,1.80
2022-11-06T16:50:55.662Z,1.00
2022-11-06T16:53:28.379Z,1.00
2022-11-06T16:55:57.493Z,0.00
2022-11-06T16:58:27.812Z,1.00
2022-11-06T17:01:01.362Z,1.00
2022-11-06T17:03:31.301Z,2.60
2022-11-06T17:05:59.670Z,1.00
2022-11-06T17:08:30.502Z,1.00
2022-11-06T17:10:58.806Z,1.00
2022-11-06T17:13:27.639Z,1.80
2022-11-06T17:15:56.664Z,1.00
2022-11-06T17:18:26.235Z,1.00
2022-11-06T17:20:55.895Z,1.80
2022-11-06T17:23:24.657Z,1.00
2022-11-06T17:25:55.321Z,3.00
2022-11-06T17:28:23.570Z,1.00
2022-11-06T17:30:51.850Z,1.80
2022-11-06T17:33:20.177Z,3.00
2022-11-06T17:35:48.785Z,1.00
2022-11-06T17:38:17.404Z,1.00
2022-11-06T17:40:45.997Z,1.40
2022-11-06T17:43:16.076Z,1.40
2022-11-06T17:45:44.702Z,3.00
2022-11-06T17:48:13.104Z,2.60
2022-11-06T17:50:55.115Z,3.00
2022-11-06T17:53:23.385Z,1.00
2022-11-06T17:55:51.911Z,3.00
2022-11-06T17:58:21.526Z,3.00
2022-11-06T18:00:50.166Z,2.20
2022-11-06T18:03:19.630Z,3.00
2022-11-06T18:05:48.046Z,1.00
2022-11-06T18:08:16.607Z,4.00
2022-11-06T18:10:47.331Z,3.80
2022-11-06T18:13:17.058Z,4.00
2022-11-06T18:15:46.881Z,1.00
2022-11-06T18:18:15.521Z,4.00
2022-11-06T18:20:45.821Z,6.00
2022-11-06T18:23:14.473Z,3.00
2022-11-06T18:25:42.831Z,4.00
2022-11-06T18:28:11.168Z,6.00
2022-11-06T18:30:39.457Z,4.00
2022-11-06T18:33:11.471Z,3.00
2022-11-06T18:35:39.762Z,4.40
2022-11-06T18:38:07.981Z,3.40
2022-11-06T18:40:36.189Z,0.40
2022-11-06T18:43:04.673Z,4.80
2022-11-06T18:45:33.025Z,4.00
2022-11-06T18:48:01.316Z,5.40
2022-11-06T18:50:31.071Z,4.40
2022-11-06T18:52:59.468Z,0.40
2022-11-06T18:55:27.986Z,4.00
2022-11-06T18:57:56.203Z,4.40
2022-11-06T19:00:24.722Z,4.00
2022-11-06T19:02:53.393Z,3.40
2022-11-06T19:05:21.722Z,6.00
2022-11-06T19:07:55.013Z,4.00
2022-11-06T19:10:25.920Z,3.00
2022-11-06T19:12:57.289Z,4.00
2022-11-06T19:15:27.618Z,4.00
2022-11-06T19:17:55.952Z,3.40
2022-11-06T19:20:24.495Z,2.20
2022-11-06T19:22:54.905Z,3.00
2022-11-06T19:25:23.696Z,3.20
2022-11-06T19:27:53.351Z,3.00
2022-11-06T19:30:21.916Z,3.60
2022-11-06T19:32:50.156Z,3.00
2022-11-06T19:35:18.506Z,3.00
2022-11-06T19:37:47.082Z,1.00
2022-11-06T19:40:16.701Z,3.60
2022-11-06T19:42:44.991Z,3.00
2022-11-06T19:45:13.270Z,4.00
2022-11-06T19:47:41.573Z,3.40
2022-11-06T19:50:10.262Z,1.80
2022-11-06T19:52:42.818Z,3.00
2022-11-06T19:55:27.128Z,3.00
2022-11-06T19:57:58.809Z,7.40
2022-11-06T20:00:27.013Z,6.00
2022-11-06T20:02:55.529Z,5.60
2022-11-06T20:05:23.793Z,1.00
2022-11-06T20:07:52.009Z,3.80
2022-11-06T20:10:20.571Z,3.20
2022-11-06T20:12:48.802Z,3.80
2022-11-06T20:15:23.682Z,3.00
2022-11-06T20:17:52.600Z,4.00
2022-11-06T20:20:20.810Z,3.20
2022-11-06T20:22:49.215Z,3.40
2022-11-06T20:25:17.792Z,3.00
2022-11-06T20:27:46.044Z,3.00
2022-11-06T20:30:14.770Z,3.00
2022-11-06T20:32:44.598Z,3.00
2022-11-06T20:35:16.829Z,3.00
2022-11-06T20:37:45.285Z,3.00
2022-11-06T20:40:14.038Z,1.00
2022-11-06T20:42:42.470Z,2.60
2022-11-06T20:45:11.236Z,3.60
2022-11-06T20:47:39.465Z,3.00
2022-11-06T20:50:09.479Z,2.20
2022-11-06T20:52:37.690Z,3.60
2022-11-06T20:55:06.674Z,3.20
2022-11-06T20:57:34.892Z,3.00
2022-11-06T21:00:03.306Z,3.80
2022-11-06T21:02:31.608Z,3.60
2022-11-06T21:04:59.949Z,3.20
2022-11-06T21:07:29.903Z,6.80
2022-11-06T21:09:58.125Z,6.00
2022-11-06T21:12:26.363Z,3.40
2022-11-06T21:14:54.958Z,5.20
2022-11-06T21:17:23.174Z,4.00
2022-11-06T21:19:51.440Z,4.80
2022-11-06T21:22:19.645Z,2.20
2022-11-06T21:24:49.523Z,5.20
2022-11-06T21:27:17.741Z,3.00
2022-11-06T21:29:46.258Z,3.20
2022-11-06T21:32:14.770Z,4.00
2022-11-06T21:34:43.037Z,5.20
2022-11-06T21:37:11.237Z,6.20
2022-11-06T21:39:39.591Z,3.00
2022-11-06T21:42:09.492Z,6.20
2022-11-06T21:44:37.746Z,6.00
2022-11-06T21:47:06.048Z,3.20
2022-11-06T21:52:34.076Z,4.00
2022-11-06T21:55:16.377Z,2.80
2022-11-06T21:57:46.068Z,3.40
2022-11-06T22:00:15.286Z,4.00
2022-11-06T22:02:43.642Z,4.40
2022-11-06T22:05:12.079Z,4.40
2022-11-06T22:07:40.311Z,0.60
2022-11-06T22:10:09.644Z,3.00
2022-11-06T22:12:37.956Z,3.20
2022-11-06T22:15:08.341Z,4.40
2022-11-06T22:17:36.559Z,3.40
2022-11-06T22:20:05.531Z,3.20
2022-11-06T22:22:34.004Z,3.80
2022-11-06T22:25:03.605Z,3.40
2022-11-06T22:27:33.079Z,3.60
2022-11-06T22:30:02.895Z,2.20
2022-11-06T22:32:32.614Z,3.80
2022-11-06T22:35:00.848Z,4.00
2022-11-06T22:37:29.067Z,3.80
2022-11-06T22:39:57.658Z,3.00
2022-11-06T22:42:25.946Z,3.40
2022-11-06T22:44:54.242Z,3.40
2022-11-06T22:47:23.325Z,3.00
2022-11-06T22:49:52.958Z,2.60
2022-11-06T22:52:21.224Z,1.40
2022-11-06T22:54:49.454Z,3.00
2022-11-06T22:57:18.107Z,4.00
2022-11-06T22:59:46.421Z,4.00
2022-11-06T23:02:14.807Z,2.60
2022-11-06T23:04:43.353Z,3.00
2022-11-06T23:07:13.119Z,1.40
2022-11-06T23:09:41.327Z,3.00
2022-11-06T23:12:09.707Z,2.60
2022-11-06T23:14:38.234Z,1.00
2022-11-06T23:17:06.521Z,3.00
2022-11-06T23:19:35.205Z,3.20
2022-11-06T23:22:17.533Z,3.40
2022-11-06T23:24:47.776Z,3.00
2022-11-06T23:27:17.241Z,1.00
2022-11-06T23:29:45.469Z,2.20
2022-11-06T23:32:13.771Z,2.20
2022-11-06T23:34:42.015Z,1.00
2022-11-06T23:37:10.594Z,1.00
2022-11-06T23:39:38.799Z,1.00
2022-11-06T23:42:08.420Z,1.00
2022-11-06T23:44:50.758Z,1.00
2022-11-06T23:47:18.978Z,0.40
2022-11-06T23:49:47.627Z,1.00
2022-11-06T23:52:15.905Z,3.00
2022-11-06T23:54:44.189Z,3.00
2022-11-06T23:57:14.104Z,0.40
2022-11-06T23:59:42.482Z,1.00
